createdAt,value
2022-11-09T00:05:16.038Z,2.09
2022-11-09T00:10:47.809Z,2.08
2022-11-09T00:21:51.856Z,2.07
2022-11-09T00:27:23.440Z,2.06
2022-11-09T00:32:55.241Z,2.00
2022-11-09T00:44:00.634Z,2.10
2022-11-09T00:49:34.998Z,2.20
2022-11-09T00:55:12.628Z,2.35
2022-11-09T01:00:44.172Z,2.50
2022-11-09T01:06:16.058Z,2.70
2022-11-09T01:22:51.260Z,3.05
2022-11-09T01:28:22.971Z,3.10
2022-11-09T01:39:26.579Z,3.30
2022-11-09T01:45:05.287Z,3.40
2022-11-09T01:50:42.836Z,3.50
2022-11-09T01:56:14.624Z,3.50
2022-11-09T02:01:48.125Z,3.55
2022-11-09T02:07:19.829Z,3.65
2022-11-09T02:12:57.251Z,3.80
2022-11-09T02:18:35.348Z,3.95
2022-11-09T02:24:13.225Z,4.15
2022-11-09T02:29:50.955Z,4.25
2022-11-09T02:35:22.785Z,4.40
2022-11-09T02:40:54.563Z,4.60
2022-11-09T02:46:26.436Z,4.70
2022-11-09T02:52:04.112Z,4.75
2022-11-09T02:57:35.674Z,4.90
2022-11-09T03:03:07.442Z,5.10
2022-11-09T03:08:39.238Z,5.15
2022-11-09T03:14:11.072Z,5.20
2022-11-09T03:19:42.848Z,5.25
2022-11-09T03:25:14.617Z,5.35
2022-11-09T03:30:46.816Z,5.35
2022-11-09T03:36:18.845Z,5.45
2022-11-09T03:41:50.532Z,5.70
2022-11-09T03:47:22.618Z,5.85
2022-11-09T03:53:00.368Z,5.95
2022-11-09T03:58:38.242Z,6.10
2022-11-09T04:04:10.333Z,6.10
2022-11-09T04:09:47.894Z,6.25
2022-11-09T04:15:19.824Z,6.40
2022-11-09T04:20:51.815Z,6.45
2022-11-09T04:26:24.024Z,6.55
2022-11-09T04:31:56.063Z,6.65
2022-11-09T04:37:33.821Z,6.65
2022-11-09T04:43:05.572Z,6.85
2022-11-09T04:48:37.457Z,6.90
2022-11-09T04:54:09.263Z,7.15
2022-11-09T04:59:46.951Z,7.25
2022-11-09T05:05:24.576Z,7.45
2022-11-09T05:10:58.417Z,7.45
2022-11-09T05:16:36.363Z,7.55
2022-11-09T05:22:08.299Z,7.75
2022-11-09T05:27:40.111Z,8.00
2022-11-09T05:33:11.624Z,8.10
2022-11-09T05:38:43.416Z,8.20
2022-11-09T05:44:21.142Z,8.40
2022-11-09T05:49:59.014Z,8.45
2022-11-09T05:55:36.719Z,8.60
2022-11-09T06:01:14.116Z,8.65
2022-11-09T06:06:51.627Z,8.70
2022-11-09T06:12:23.772Z,8.85
2022-11-09T06:18:01.101Z,9.05
2022-11-09T06:23:32.842Z,9.30
2022-11-09T06:29:04.344Z,9.45
2022-11-09T06:34:36.047Z,9.55
2022-11-09T06:40:07.679Z,9.55
2022-11-09T06:45:39.513Z,9.65
2022-11-09T06:51:17.185Z,9.80
2022-11-09T06:56:48.907Z,9.90
2022-11-09T07:02:20.786Z,9.90
2022-11-09T07:07:52.662Z,10.05
2022-11-09T07:10:16.232Z,0.98
2022-11-09T07:15:53.564Z,2.46
2022-11-09T07:21:31.561Z,2.30
2022-11-09T07:27:09.086Z,2.45
2022-11-09T07:33:07.354Z,2.35
2022-11-09T07:38:12.555Z,2.29
2022-11-09T07:43:46.567Z,2.10
2022-11-09T07:49:18.334Z,1.96
2022-11-09T07:54:52.333Z,1.96
2022-11-09T08:00:23.756Z,1.86
2022-11-09T08:05:54.130Z,1.96
2022-11-09T08:11:25.570Z,1.88
2022-11-09T08:16:57.926Z,1.88
2022-11-09T08:22:29.798Z,2.03
2022-11-09T08:28:01.398Z,2.02
2022-11-09T08:33:33.239Z,2.14
2022-11-09T08:39:05.554Z,2.13
2022-11-09T08:44:37.418Z,2.07
2022-11-09T08:50:09.332Z,2.01
2022-11-09T08:55:43.792Z,1.95
2022-11-09T09:01:16.892Z,2.00
2022-11-09T09:06:45.344Z,2.05
2022-11-09T09:12:16.886Z,2.25
2022-11-09T09:17:49.360Z,2.30
2022-11-09T09:23:22.005Z,2.45
2022-11-09T09:28:53.852Z,2.50
2022-11-09T09:34:25.705Z,2.80
2022-11-09T09:39:58.038Z,2.85
2022-11-09T09:45:30.050Z,2.90
2022-11-09T09:51:02.211Z,3.00
2022-11-09T09:56:34.148Z,3.20
2022-11-09T10:02:06.492Z,3.30
2022-11-09T10:07:38.723Z,3.40
2022-11-09T10:13:10.715Z,3.55
2022-11-09T10:18:42.994Z,3.70
2022-11-09T10:24:15.152Z,3.70
2022-11-09T10:35:17.363Z,3.85
2022-11-09T10:40:49.782Z,4.05
2022-11-09T10:46:21.800Z,4.25
2022-11-09T10:51:54.124Z,4.40
2022-11-09T10:57:26.541Z,4.55
2022-11-09T11:02:58.666Z,4.75
2022-11-09T11:08:30.957Z,4.80
2022-11-09T11:14:02.913Z,4.85
2022-11-09T11:19:35.256Z,4.90
2022-11-09T11:30:37.037Z,5.15
2022-11-09T11:41:38.706Z,5.35
2022-11-09T11:47:10.614Z,5.40
2022-11-09T11:52:42.949Z,5.60
2022-11-09T11:58:15.093Z,5.65
2022-11-09T12:03:50.575Z,5.75
2022-11-09T12:09:19.636Z,5.80
2022-11-09T12:14:51.761Z,6.20
2022-11-09T12:20:23.625Z,6.30
2022-11-09T12:25:55.822Z,6.40
2022-11-09T12:31:28.410Z,6.45
2022-11-09T12:37:00.409Z,6.55
2022-11-09T12:42:32.834Z,6.65
2022-11-09T12:48:05.151Z,6.70
2022-11-09T12:53:37.484Z,6.85
2022-11-09T12:59:09.598Z,6.85
2022-11-09T13:04:41.460Z,7.00
2022-11-09T13:10:13.550Z,7.15
2022-11-09T13:15:45.220Z,7.15
2022-11-09T13:21:17.400Z,7.15
2022-11-09T13:26:49.718Z,7.15
2022-11-09T13:32:21.923Z,7.25
2022-11-09T13:37:53.626Z,7.35
2022-11-09T13:43:25.764Z,7.45
2022-11-09T13:48:57.893Z,7.55
2022-11-09T13:54:29.756Z,7.65
2022-11-09T14:00:01.752Z,7.70
2022-11-09T14:05:33.615Z,7.80
2022-11-09T14:11:05.737Z,8.05
2022-11-09T14:16:37.713Z,8.15
2022-11-09T14:22:09.972Z,8.20
2022-11-09T14:27:41.889Z,8.25
2022-11-09T14:33:13.859Z,8.30
2022-11-09T14:38:46.014Z,8.35
2022-11-09T14:44:18.321Z,8.40
2022-11-09T14:49:51.091Z,8.55
2022-11-09T14:55:23.473Z,8.65
2022-11-09T15:00:55.744Z,8.70
2022-11-09T15:06:27.600Z,8.80
2022-11-09T15:11:59.406Z,8.90
2022-11-09T15:17:31.405Z,9.05
2022-11-09T15:23:03.415Z,9.15
2022-11-09T15:28:35.402Z,9.15
2022-11-09T15:34:07.208Z,9.25
2022-11-09T15:39:38.736Z,9.45
2022-11-09T15:45:10.892Z,9.50
2022-11-09T15:50:42.909Z,9.60
2022-11-09T15:56:15.256Z,9.65
2022-11-09T16:01:47.094Z,9.70
2022-11-09T16:07:19.227Z,9.75
2022-11-09T16:12:51.444Z,10.00
2022-11-09T16:18:26.107Z,10.15
2022-11-09T16:23:58.661Z,10.15
2022-11-09T16:40:27.851Z,10.25
2022-11-09T16:46:00.037Z,10.30
2022-11-09T16:51:32.241Z,10.30
2022-11-09T16:57:04.407Z,10.35
2022-11-09T17:02:36.608Z,10.55
2022-11-09T17:08:08.788Z,10.80
2022-11-09T17:13:40.697Z,10.85
2022-11-09T17:19:12.774Z,10.95
2022-11-09T17:24:45.171Z,11.05
2022-11-09T17:30:18.042Z,11.15
2022-11-09T17:35:50.176Z,11.20
2022-11-09T17:41:22.214Z,11.25
2022-11-09T17:46:54.327Z,11.40
2022-11-09T17:52:26.705Z,11.60
2022-11-09T17:57:58.938Z,11.80
2022-11-09T18:03:31.338Z,11.85
2022-11-09T18:09:39.153Z,11.90
2022-11-09T18:14:35.274Z,12.05
2022-11-09T18:20:06.749Z,12.10
2022-11-09T18:25:38.732Z,12.10
2022-11-09T18:31:10.582Z,12.15
2022-11-09T18:36:42.337Z,12.20
2022-11-09T18:42:14.229Z,12.20
2022-11-09T18:47:46.385Z,12.30
2022-11-09T18:53:18.448Z,12.35
2022-11-09T18:58:50.439Z,12.45
2022-11-09T19:04:22.249Z,12.45
2022-11-09T19:09:56.675Z,12.75
2022-11-09T19:20:55.880Z,12.85
2022-11-09T19:26:28.218Z,13.00
2022-11-09T19:32:00.678Z,13.05
2022-11-09T19:37:32.931Z,13.15
2022-11-09T19:43:04.953Z,13.25
2022-11-09T19:48:36.757Z,13.35
2022-11-09T19:54:09.236Z,13.40
2022-11-09T19:59:41.349Z,13.50
2022-11-09T20:05:13.997Z,13.55
2022-11-09T20:10:45.819Z,13.75
2022-11-09T20:16:17.825Z,13.95
2022-11-09T20:21:51.352Z,14.15
2022-11-09T20:24:02.936Z,0.00
2022-11-09T20:29:34.768Z,1.98
2022-11-09T20:35:06.376Z,1.31
2022-11-09T20:40:38.534Z,1.23
2022-11-09T20:46:10.545Z,1.57
2022-11-09T20:51:42.732Z,1.96
2022-11-09T20:57:15.334Z,1.96
2022-11-09T21:02:46.815Z,1.96
2022-11-09T21:08:19.023Z,2.07
2022-11-09T21:13:50.693Z,2.26
2022-11-09T21:19:22.517Z,2.23
2022-11-09T21:24:54.212Z,2.04
2022-11-09T21:30:26.087Z,2.04
2022-11-09T21:35:58.295Z,1.96
2022-11-09T21:41:29.896Z,1.83
2022-11-09T21:47:01.954Z,2.08
2022-11-09T21:52:33.777Z,2.08
2022-11-09T21:58:05.799Z,2.07
2022-11-09T22:03:37.787Z,2.22
2022-11-09T22:09:09.285Z,2.25
2022-11-09T22:14:41.192Z,2.30
2022-11-09T22:20:12.764Z,2.40
2022-11-09T22:25:47.947Z,2.45
2022-11-09T22:31:16.507Z,2.45
2022-11-09T22:36:48.115Z,2.50
2022-11-09T22:42:20.371Z,2.60
2022-11-09T22:47:52.418Z,2.85
2022-11-09T22:53:24.366Z,2.90
2022-11-09T22:58:56.668Z,2.90
2022-11-09T23:04:28.884Z,3.00
2022-11-09T23:10:00.724Z,3.05
2022-11-09T23:15:33.400Z,3.20
2022-11-09T23:21:05.437Z,3.25
2022-11-09T23:26:37.155Z,3.25
2022-11-09T23:32:08.831Z,3.35
2022-11-09T23:37:40.521Z,3.60
2022-11-09T23:43:12.411Z,3.65
2022-11-09T23:48:44.057Z,3.75
2022-11-09T23:54:15.845Z,3.75
2022-11-09T23:59:47.548Z,3.90
